sensor_id;sensor_type;location;lat;lon;timestamp;temperature;humidity
14277;DHT22;7222;57.346;12.150;2023-07-29T00:01:37;13.20;1.00
14277;DHT22;7222;57.346;12.150;2023-07-29T00:04:05;13.10;99.90
14277;DHT22;7222;57.346;12.150;2023-07-29T00:06:35;13.10;99.90
14277;DHT22;7222;57.346;12.150;2023-07-29T00:09:02;13.10;99.90
14277;DHT22;7222;57.346;12.150;2023-07-29T00:11:29;13.00;99.90
14277;DHT22;7222;57.346;12.150;2023-07-29T00:13:58;13.10;99.90
14277;DHT22;7222;57.346;12.150;2023-07-29T00:16:25;13.10;99.90
14277;DHT22;7222;57.346;12.150;2023-07-29T00:18:51;13.00;99.90
14277;DHT22;7222;57.346;12.150;2023-07-29T00:21:18;13.00;99.90
14277;DHT22;7222;57.346;12.150;2023-07-29T00:23:47;13.00;99.90
14277;DHT22;7222;57.346;12.150;2023-07-29T00:26:13;13.00;99.90
14277;DHT22;7222;57.346;12.150;2023-07-29T00:28:40;12.90;99.90
14277;DHT22;7222;57.346;12.150;2023-07-29T00:31:07;13.00;1.00
14277;DHT22;7222;57.346;12.150;2023-07-29T00:33:34;12.90;1.00
14277;DHT22;7222;57.346;12.150;2023-07-29T00:36:01;12.90;1.00
14277;DHT22;7222;57.346;12.150;2023-07-29T00:38:28;12.90;1.00
14277;DHT22;7222;57.346;12.150;2023-07-29T00:40:57;12.90;1.00
14277;DHT22;7222;57.346;12.150;2023-07-29T00:43:24;12.80;99.90
14277;DHT22;7222;57.346;12.150;2023-07-29T00:45:51;12.80;1.00
14277;DHT22;7222;57.346;12.150;2023-07-29T00:48:18;12.80;1.00
14277;DHT22;7222;57.346;12.150;2023-07-29T00:50:46;12.80;1.00
14277;DHT22;7222;57.346;12.150;2023-07-29T00:53:12;12.80;1.00
14277;DHT22;7222;57.346;12.150;2023-07-29T00:55:40;12.70;1.00
14277;DHT22;7222;57.346;12.150;2023-07-29T00:58:09;12.70;1.00
14277;DHT22;7222;57.346;12.150;2023-07-29T01:00:36;12.60;1.00
14277;DHT22;7222;57.346;12.150;2023-07-29T01:03:03;12.60;1.00
14277;DHT22;7222;57.346;12.150;2023-07-29T01:05:36;12.60;1.00
14277;DHT22;7222;57.346;12.150;2023-07-29T01:08:13;12.60;1.00
14277;DHT22;7222;57.346;12.150;2023-07-29T01:10:48;12.50;1.00
14277;DHT22;7222;57.346;12.150;2023-07-29T01:13:22;12.50;1.00
14277;DHT22;7222;57.346;12.150;2023-07-29T01:15:53;12.50;1.00
14277;DHT22;7222;57.346;12.150;2023-07-29T01:18:23;12.50;92.50
14277;DHT22;7222;57.346;12.150;2023-07-29T01:20:54;12.50;1.00
14277;DHT22;7222;57.346;12.150;2023-07-29T01:23:25;12.50;1.00
14277;DHT22;7222;57.346;12.150;2023-07-29T01:25:52;12.50;1.00
14277;DHT22;7222;57.346;12.150;2023-07-29T01:28:19;12.50;1.00
14277;DHT22;7222;57.346;12.150;2023-07-29T01:30:49;12.40;1.00
14277;DHT22;7222;57.346;12.150;2023-07-29T01:33:20;12.40;1.00
14277;DHT22;7222;57.346;12.150;2023-07-29T01:35:52;12.40;1.00
14277;DHT22;7222;57.346;12.150;2023-07-29T01:38:27;12.40;23.40
14277;DHT22;7222;57.346;12.150;2023-07-29T01:40:58;12.40;15.00
14277;DHT22;7222;57.346;12.150;2023-07-29T01:43:25;12.40;69.70
14277;DHT22;7222;57.346;12.150;2023-07-29T01:45:52;12.40;99.50
14277;DHT22;7222;57.346;12.150;2023-07-29T01:48:19;12.30;1.00
14277;DHT22;7222;57.346;12.150;2023-07-29T01:50:46;12.30;1.00
14277;DHT22;7222;57.346;12.150;2023-07-29T01:53:13;12.30;1.00
14277;DHT22;7222;57.346;12.150;2023-07-29T01:55:42;12.30;1.00
14277;DHT22;7222;57.346;12.150;2023-07-29T01:58:10;12.30;1.00
14277;DHT22;7222;57.346;12.150;2023-07-29T02:00:37;12.20;18.40
14277;DHT22;7222;57.346;12.150;2023-07-29T02:03:04;12.30;21.20
14277;DHT22;7222;57.346;12.150;2023-07-29T02:05:31;12.30;75.70
14277;DHT22;7222;57.346;12.150;2023-07-29T02:07:58;12.30;46.50
14277;DHT22;7222;57.346;12.150;2023-07-29T02:10:25;12.20;64.60
14277;DHT22;7222;57.346;12.150;2023-07-29T02:12:53;12.20;56.20
14277;DHT22;7222;57.346;12.150;2023-07-29T02:15:20;12.20;99.90
14277;DHT22;7222;57.346;12.150;2023-07-29T02:17:49;12.20;99.90
14277;DHT22;7222;57.346;12.150;2023-07-29T02:20:17;12.20;99.90
14277;DHT22;7222;57.346;12.150;2023-07-29T02:22:43;12.20;99.90
14277;DHT22;7222;57.346;12.150;2023-07-29T02:25:10;12.10;99.90
14277;DHT22;7222;57.346;12.150;2023-07-29T02:27:38;12.10;99.90
14277;DHT22;7222;57.346;12.150;2023-07-29T02:30:07;12.10;99.90
14277;DHT22;7222;57.346;12.150;2023-07-29T02:32:35;12.10;99.90
14277;DHT22;7222;57.346;12.150;2023-07-29T02:35:02;12.10;99.90
14277;DHT22;7222;57.346;12.150;2023-07-29T02:37:30;12.10;99.90
14277;DHT22;7222;57.346;12.150;2023-07-29T02:39:57;12.10;99.90
14277;DHT22;7222;57.346;12.150;2023-07-29T02:42:24;12.00;99.90
14277;DHT22;7222;57.346;12.150;2023-07-29T02:44:51;12.10;99.90
14277;DHT22;7222;57.346;12.150;2023-07-29T02:47:19;12.10;99.90
14277;DHT22;7222;57.346;12.150;2023-07-29T02:49:46;12.30;99.90
14277;DHT22;7222;57.346;12.150;2023-07-29T02:52:13;12.10;99.90
14277;DHT22;7222;57.346;12.150;2023-07-29T02:54:40;12.10;99.90
14277;DHT22;7222;57.346;12.150;2023-07-29T02:57:07;12.00;99.90
14277;DHT22;7222;57.346;12.150;2023-07-29T02:59:34;12.00;99.90
14277;DHT22;7222;57.346;12.150;2023-07-29T03:02:01;12.00;99.90
14277;DHT22;7222;57.346;12.150;2023-07-29T03:04:30;12.00;99.90
14277;DHT22;7222;57.346;12.150;2023-07-29T03:06:58;12.00;99.90
14277;DHT22;7222;57.346;12.150;2023-07-29T03:09:25;12.00;99.90
14277;DHT22;7222;57.346;12.150;2023-07-29T03:11:51;12.00;99.90
14277;DHT22;7222;57.346;12.150;2023-07-29T03:14:20;11.90;99.90
14277;DHT22;7222;57.346;12.150;2023-07-29T03:16:47;12.10;99.90
14277;DHT22;7222;57.346;12.150;2023-07-29T03:19:14;12.10;99.90
14277;DHT22;7222;57.346;12.150;2023-07-29T03:21:43;12.00;99.90
14277;DHT22;7222;57.346;12.150;2023-07-29T03:24:10;12.20;99.90
14277;DHT22;7222;57.346;12.150;2023-07-29T03:26:36;12.00;99.90
14277;DHT22;7222;57.346;12.150;2023-07-29T03:29:03;12.20;99.90
14277;DHT22;7222;57.346;12.150;2023-07-29T03:31:30;12.20;99.90
14277;DHT22;7222;57.346;12.150;2023-07-29T03:33:57;12.30;99.90
14277;DHT22;7222;57.346;12.150;2023-07-29T03:36:25;12.20;99.90
14277;DHT22;7222;57.346;12.150;2023-07-29T03:38:53;12.20;99.90
14277;DHT22;7222;57.346;12.150;2023-07-29T03:41:20;12.40;99.90
14277;DHT22;7222;57.346;12.150;2023-07-29T03:43:47;12.60;99.90
14277;DHT22;7222;57.346;12.150;2023-07-29T03:46:14;12.70;99.90
14277;DHT22;7222;57.346;12.150;2023-07-29T03:48:45;12.80;99.90
14277;DHT22;7222;57.346;12.150;2023-07-29T03:51:12;12.70;99.90
14277;DHT22;7222;57.346;12.150;2023-07-29T03:53:39;12.80;99.90
14277;DHT22;7222;57.346;12.150;2023-07-29T03:56:08;13.00;99.90
14277;DHT22;7222;57.346;12.150;2023-07-29T03:58:34;12.90;99.90
14277;DHT22;7222;57.346;12.150;2023-07-29T04:01:01;12.90;99.90
14277;DHT22;7222;57.346;12.150;2023-07-29T04:03:30;12.80;99.90
14277;DHT22;7222;57.346;12.150;2023-07-29T04:05:57;12.70;99.90
14277;DHT22;7222;57.346;12.150;2023-07-29T04:08:23;12.80;99.90
14277;DHT22;7222;57.346;12.150;2023-07-29T04:10:51;12.60;99.90
14277;DHT22;7222;57.346;12.150;2023-07-29T04:13:19;12.90;99.90
14277;DHT22;7222;57.346;12.150;2023-07-29T04:15:46;13.00;99.90
14277;DHT22;7222;57.346;12.150;2023-07-29T04:18:13;12.90;99.90
14277;DHT22;7222;57.346;12.150;2023-07-29T04:20:39;12.80;99.90
14277;DHT22;7222;57.346;12.150;2023-07-29T04:23:07;13.00;99.90
14277;DHT22;7222;57.346;12.150;2023-07-29T04:25:33;13.20;99.90
14277;DHT22;7222;57.346;12.150;2023-07-29T04:28:00;13.20;99.90
14277;DHT22;7222;57.346;12.150;2023-07-29T04:30:30;13.40;99.90
14277;DHT22;7222;57.346;12.150;2023-07-29T04:32:57;13.40;99.90
14277;DHT22;7222;57.346;12.150;2023-07-29T04:35:24;13.50;99.90
14277;DHT22;7222;57.346;12.150;2023-07-29T04:37:51;13.60;99.90
14277;DHT22;7222;57.346;12.150;2023-07-29T04:40:18;13.80;99.90
14277;DHT22;7222;57.346;12.150;2023-07-29T04:42:45;13.90;99.90
14277;DHT22;7222;57.346;12.150;2023-07-29T04:45:12;14.10;99.90
14277;DHT22;7222;57.346;12.150;2023-07-29T04:47:40;14.10;99.90
14277;DHT22;7222;57.346;12.150;2023-07-29T04:50:08;14.10;99.90
14277;DHT22;7222;57.346;12.150;2023-07-29T04:52:35;14.10;99.90
14277;DHT22;7222;57.346;12.150;2023-07-29T04:55:03;14.20;99.90
14277;DHT22;7222;57.346;12.150;2023-07-29T04:57:30;14.20;99.90
14277;DHT22;7222;57.346;12.150;2023-07-29T04:59:57;14.10;99.90
14277;DHT22;7222;57.346;12.150;2023-07-29T05:02:23;14.30;99.90
14277;DHT22;7222;57.346;12.150;2023-07-29T05:04:52;14.50;99.90
14277;DHT22;7222;57.346;12.150;2023-07-29T05:07:19;14.60;99.90
14277;DHT22;7222;57.346;12.150;2023-07-29T05:09:47;14.80;99.90
14277;DHT22;7222;57.346;12.150;2023-07-29T05:12:14;15.00;99.90
14277;DHT22;7222;57.346;12.150;2023-07-29T05:14:41;15.10;99.90
14277;DHT22;7222;57.346;12.150;2023-07-29T05:17:08;15.30;99.90
14277;DHT22;7222;57.346;12.150;2023-07-29T05:19:35;15.40;99.90
14277;DHT22;7222;57.346;12.150;2023-07-29T05:22:05;15.50;99.90
14277;DHT22;7222;57.346;12.150;2023-07-29T05:24:31;15.50;99.90
14277;DHT22;7222;57.346;12.150;2023-07-29T05:26:58;15.60;99.90
14277;DHT22;7222;57.346;12.150;2023-07-29T05:29:25;15.60;99.90
14277;DHT22;7222;57.346;12.150;2023-07-29T05:31:52;15.60;99.90
14277;DHT22;7222;57.346;12.150;2023-07-29T05:34:19;15.60;99.90
14277;DHT22;7222;57.346;12.150;2023-07-29T05:36:46;15.60;99.90
14277;DHT22;7222;57.346;12.150;2023-07-29T05:39:15;15.70;99.90
14277;DHT22;7222;57.346;12.150;2023-07-29T05:41:42;15.80;99.90
14277;DHT22;7222;57.346;12.150;2023-07-29T05:44:09;15.80;99.90
14277;DHT22;7222;57.346;12.150;2023-07-29T05:46:36;15.80;99.90
14277;DHT22;7222;57.346;12.150;2023-07-29T05:49:03;15.90;99.90
14277;DHT22;7222;57.346;12.150;2023-07-29T05:51:30;16.00;99.90
14277;DHT22;7222;57.346;12.150;2023-07-29T05:53:57;15.90;99.90
14277;DHT22;7222;57.346;12.150;2023-07-29T05:56:25;15.90;99.90
14277;DHT22;7222;57.346;12.150;2023-07-29T05:58:52;16.00;99.90
14277;DHT22;7222;57.346;12.150;2023-07-29T06:01:19;16.00;99.90
14277;DHT22;7222;57.346;12.150;2023-07-29T06:03:47;16.10;99.90
14277;DHT22;7222;57.346;12.150;2023-07-29T06:06:15;16.10;99.90
14277;DHT22;7222;57.346;12.150;2023-07-29T06:08:42;16.20;99.90
14277;DHT22;7222;57.346;12.150;2023-07-29T06:11:09;16.20;99.90
14277;DHT22;7222;57.346;12.150;2023-07-29T06:13:37;16.30;99.90
14277;DHT22;7222;57.346;12.150;2023-07-29T06:16:04;16.30;99.90
14277;DHT22;7222;57.346;12.150;2023-07-29T06:18:31;16.40;99.90
14277;DHT22;7222;57.346;12.150;2023-07-29T06:20:58;16.40;99.90
14277;DHT22;7222;57.346;12.150;2023-07-29T06:23:25;16.50;99.90
14277;DHT22;7222;57.346;12.150;2023-07-29T06:25:53;16.50;99.90
14277;DHT22;7222;57.346;12.150;2023-07-29T06:28:20;16.60;99.90
14277;DHT22;7222;57.346;12.150;2023-07-29T06:30:49;16.50;99.90
14277;DHT22;7222;57.346;12.150;2023-07-29T06:33:16;16.60;99.90
14277;DHT22;7222;57.346;12.150;2023-07-29T06:35:43;16.50;99.90
14277;DHT22;7222;57.346;12.150;2023-07-29T06:38:10;16.70;99.90
14277;DHT22;7222;57.346;12.150;2023-07-29T06:40:37;16.70;99.90
14277;DHT22;7222;57.346;12.150;2023-07-29T06:43:05;16.70;99.90
14277;DHT22;7222;57.346;12.150;2023-07-29T06:45:32;16.80;99.90
14277;DHT22;7222;57.346;12.150;2023-07-29T06:48:00;16.80;99.90
14277;DHT22;7222;57.346;12.150;2023-07-29T06:50:28;16.90;99.90
14277;DHT22;7222;57.346;12.150;2023-07-29T06:52:55;16.90;99.90
14277;DHT22;7222;57.346;12.150;2023-07-29T06:55:22;17.00;99.90
14277;DHT22;7222;57.346;12.150;2023-07-29T06:57:49;17.10;99.90
14277;DHT22;7222;57.346;12.150;2023-07-29T07:00:16;17.10;99.90
14277;DHT22;7222;57.346;12.150;2023-07-29T07:02:43;17.20;99.90
14277;DHT22;7222;57.346;12.150;2023-07-29T07:05:12;17.20;99.90
14277;DHT22;7222;57.346;12.150;2023-07-29T07:07:40;17.30;99.90
14277;DHT22;7222;57.346;12.150;2023-07-29T07:10:08;17.40;99.90
14277;DHT22;7222;57.346;12.150;2023-07-29T07:12:35;17.40;99.90
14277;DHT22;7222;57.346;12.150;2023-07-29T07:15:03;17.40;99.90
14277;DHT22;7222;57.346;12.150;2023-07-29T07:17:30;17.40;99.90
14277;DHT22;7222;57.346;12.150;2023-07-29T07:19:57;17.40;99.90
14277;DHT22;7222;57.346;12.150;2023-07-29T07:22:26;17.40;99.90
14277;DHT22;7222;57.346;12.150;2023-07-29T07:24:53;17.40;99.90
14277;DHT22;7222;57.346;12.150;2023-07-29T07:27:21;17.40;99.90
14277;DHT22;7222;57.346;12.150;2023-07-29T07:29:49;17.50;99.90
14277;DHT22;7222;57.346;12.150;2023-07-29T07:32:16;17.60;99.90
14277;DHT22;7222;57.346;12.150;2023-07-29T07:34:43;17.80;99.90
14277;DHT22;7222;57.346;12.150;2023-07-29T07:37:10;18.10;99.90
14277;DHT22;7222;57.346;12.150;2023-07-29T07:39:38;18.10;99.90
14277;DHT22;7222;57.346;12.150;2023-07-29T07:42:06;18.00;99.90
14277;DHT22;7222;57.346;12.150;2023-07-29T07:44:33;18.00;99.90
14277;DHT22;7222;57.346;12.150;2023-07-29T07:47:00;18.00;99.90
14277;DHT22;7222;57.346;12.150;2023-07-29T07:49:28;18.00;99.90
14277;DHT22;7222;57.346;12.150;2023-07-29T07:51:55;18.00;99.90
14277;DHT22;7222;57.346;12.150;2023-07-29T07:54:23;18.00;99.90
14277;DHT22;7222;57.346;12.150;2023-07-29T07:56:52;18.10;99.90
14277;DHT22;7222;57.346;12.150;2023-07-29T07:59:20;18.30;99.90
14277;DHT22;7222;57.346;12.150;2023-07-29T08:01:46;18.50;99.90
14277;DHT22;7222;57.346;12.150;2023-07-29T08:04:14;18.40;99.90
14277;DHT22;7222;57.346;12.150;2023-07-29T08:06:41;18.40;99.90
14277;DHT22;7222;57.346;12.150;2023-07-29T08:09:09;18.40;99.90
14277;DHT22;7222;57.346;12.150;2023-07-29T08:11:36;18.30;99.90
14277;DHT22;7222;57.346;12.150;2023-07-29T08:14:05;18.40;99.90
14277;DHT22;7222;57.346;12.150;2023-07-29T08:16:32;18.50;99.90
14277;DHT22;7222;57.346;12.150;2023-07-29T08:18:59;18.60;99.90
14277;DHT22;7222;57.346;12.150;2023-07-29T08:21:27;18.70;99.90
14277;DHT22;7222;57.346;12.150;2023-07-29T08:23:54;18.80;99.90
14277;DHT22;7222;57.346;12.150;2023-07-29T08:26:21;18.80;99.90
14277;DHT22;7222;57.346;12.150;2023-07-29T08:28:48;18.90;99.90
14277;DHT22;7222;57.346;12.150;2023-07-29T08:31:17;18.90;99.90
14277;DHT22;7222;57.346;12.150;2023-07-29T08:33:45;18.80;99.90
14277;DHT22;7222;57.346;12.150;2023-07-29T08:36:12;18.80;99.90
14277;DHT22;7222;57.346;12.150;2023-07-29T08:38:39;18.70;99.90
14277;DHT22;7222;57.346;12.150;2023-07-29T08:41:13;18.70;99.90
14277;DHT22;7222;57.346;12.150;2023-07-29T08:43:44;18.80;99.90
14277;DHT22;7222;57.346;12.150;2023-07-29T08:46:16;18.80;99.90
14277;DHT22;7222;57.346;12.150;2023-07-29T08:48:43;18.90;99.90
14277;DHT22;7222;57.346;12.150;2023-07-29T08:51:11;19.00;99.90
14277;DHT22;7222;57.346;12.150;2023-07-29T08:53:39;19.10;99.90
14277;DHT22;7222;57.346;12.150;2023-07-29T08:56:07;19.20;99.90
14277;DHT22;7222;57.346;12.150;2023-07-29T08:58:35;19.30;99.90
14277;DHT22;7222;57.346;12.150;2023-07-29T09:01:02;19.40;99.90
14277;DHT22;7222;57.346;12.150;2023-07-29T09:03:31;19.20;99.90
14277;DHT22;7222;57.346;12.150;2023-07-29T09:05:58;19.10;99.90
14277;DHT22;7222;57.346;12.150;2023-07-29T09:08:26;18.90;99.90
14277;DHT22;7222;57.346;12.150;2023-07-29T09:10:54;18.90;99.90
14277;DHT22;7222;57.346;12.150;2023-07-29T09:13:21;18.70;99.90
14277;DHT22;7222;57.346;12.150;2023-07-29T09:15:48;18.70;99.90
14277;DHT22;7222;57.346;12.150;2023-07-29T09:18:17;18.90;99.90
14277;DHT22;7222;57.346;12.150;2023-07-29T09:20:46;18.90;99.90
14277;DHT22;7222;57.346;12.150;2023-07-29T09:23:13;19.00;99.90
14277;DHT22;7222;57.346;12.150;2023-07-29T09:25:41;19.00;99.90
14277;DHT22;7222;57.346;12.150;2023-07-29T09:28:09;19.10;99.90
14277;DHT22;7222;57.346;12.150;2023-07-29T09:30:37;19.00;99.90
14277;DHT22;7222;57.346;12.150;2023-07-29T09:33:04;19.00;99.90
14277;DHT22;7222;57.346;12.150;2023-07-29T09:35:33;19.20;99.90
14277;DHT22;7222;57.346;12.150;2023-07-29T09:38:02;19.30;99.90
14277;DHT22;7222;57.346;12.150;2023-07-29T09:40:35;19.20;99.90
14277;DHT22;7222;57.346;12.150;2023-07-29T09:43:03;19.30;99.90
14277;DHT22;7222;57.346;12.150;2023-07-29T09:45:33;19.30;99.90
14277;DHT22;7222;57.346;12.150;2023-07-29T09:48:01;19.40;99.90
14277;DHT22;7222;57.346;12.150;2023-07-29T09:50:30;19.40;99.90
14277;DHT22;7222;57.346;12.150;2023-07-29T09:52:58;19.30;99.90
14277;DHT22;7222;57.346;12.150;2023-07-29T09:55:26;19.20;99.90
14277;DHT22;7222;57.346;12.150;2023-07-29T09:57:55;19.30;99.90
14277;DHT22;7222;57.346;12.150;2023-07-29T10:00:23;19.30;99.90
14277;DHT22;7222;57.346;12.150;2023-07-29T10:02:51;19.30;99.90
14277;DHT22;7222;57.346;12.150;2023-07-29T10:05:19;19.30;99.90
14277;DHT22;7222;57.346;12.150;2023-07-29T10:07:47;19.30;99.90
14277;DHT22;7222;57.346;12.150;2023-07-29T10:10:15;19.30;99.90
14277;DHT22;7222;57.346;12.150;2023-07-29T10:12:45;19.30;99.90
14277;DHT22;7222;57.346;12.150;2023-07-29T10:15:13;19.40;99.90
14277;DHT22;7222;57.346;12.150;2023-07-29T10:17:40;19.30;99.90
14277;DHT22;7222;57.346;12.150;2023-07-29T10:20:08;19.60;99.90
14277;DHT22;7222;57.346;12.150;2023-07-29T10:22:37;19.80;99.90
14277;DHT22;7222;57.346;12.150;2023-07-29T10:25:07;20.00;99.90
14277;DHT22;7222;57.346;12.150;2023-07-29T10:27:42;19.80;99.90
14277;DHT22;7222;57.346;12.150;2023-07-29T10:30:12;19.70;99.90
14277;DHT22;7222;57.346;12.150;2023-07-29T10:32:42;19.80;99.90
14277;DHT22;7222;57.346;12.150;2023-07-29T10:35:10;19.90;99.90
14277;DHT22;7222;57.346;12.150;2023-07-29T10:37:38;20.00;99.90
14277;DHT22;7222;57.346;12.150;2023-07-29T10:40:07;20.00;99.90
14277;DHT22;7222;57.346;12.150;2023-07-29T10:42:35;19.90;99.90
14277;DHT22;7222;57.346;12.150;2023-07-29T10:47:56;20.00;99.90
14277;DHT22;7222;57.346;12.150;2023-07-29T10:50:23;19.90;99.90
14277;DHT22;7222;57.346;12.150;2023-07-29T10:52:51;20.00;99.90
14277;DHT22;7222;57.346;12.150;2023-07-29T10:55:26;20.20;99.90
14277;DHT22;7222;57.346;12.150;2023-07-29T10:58:11;20.50;99.90
14277;DHT22;7222;57.346;12.150;2023-07-29T11:00:39;20.50;99.90
14277;DHT22;7222;57.346;12.150;2023-07-29T11:03:09;20.40;99.90
14277;DHT22;7222;57.346;12.150;2023-07-29T11:05:44;20.40;99.90
14277;DHT22;7222;57.346;12.150;2023-07-29T11:08:17;20.40;99.90
14277;DHT22;7222;57.346;12.150;2023-07-29T11:10:46;20.60;99.90
14277;DHT22;7222;57.346;12.150;2023-07-29T11:13:26;20.20;99.90
14277;DHT22;7222;57.346;12.150;2023-07-29T11:15:54;20.10;99.90
14277;DHT22;7222;57.346;12.150;2023-07-29T11:18:27;20.30;99.90
14277;DHT22;7222;57.346;12.150;2023-07-29T11:20:55;20.20;99.90
14277;DHT22;7222;57.346;12.150;2023-07-29T11:23:28;20.40;99.90
14277;DHT22;7222;57.346;12.150;2023-07-29T11:25:55;20.40;99.90
14277;DHT22;7222;57.346;12.150;2023-07-29T11:28:24;20.60;99.90
14277;DHT22;7222;57.346;12.150;2023-07-29T11:30:51;20.70;99.90
14277;DHT22;7222;57.346;12.150;2023-07-29T11:33:20;21.00;99.90
14277;DHT22;7222;57.346;12.150;2023-07-29T11:35:49;21.20;99.90
14277;DHT22;7222;57.346;12.150;2023-07-29T11:38:16;21.10;99.90
14277;DHT22;7222;57.346;12.150;2023-07-29T11:40:53;20.80;99.90
14277;DHT22;7222;57.346;12.150;2023-07-29T11:43:20;20.90;99.90
14277;DHT22;7222;57.346;12.150;2023-07-29T11:45:47;20.80;99.90
14277;DHT22;7222;57.346;12.150;2023-07-29T11:48:13;21.10;99.90
14277;DHT22;7222;57.346;12.150;2023-07-29T11:50:40;21.30;99.90
14277;DHT22;7222;57.346;12.150;2023-07-29T11:53:10;21.10;99.90
14277;DHT22;7222;57.346;12.150;2023-07-29T11:55:37;21.10;99.90
14277;DHT22;7222;57.346;12.150;2023-07-29T11:58:04;21.20;99.90
14277;DHT22;7222;57.346;12.150;2023-07-29T12:00:31;21.30;99.90
14277;DHT22;7222;57.346;12.150;2023-07-29T12:02:58;21.40;99.90
14277;DHT22;7222;57.346;12.150;2023-07-29T12:05:26;21.60;99.90
14277;DHT22;7222;57.346;12.150;2023-07-29T12:07:53;21.20;99.90
14277;DHT22;7222;57.346;12.150;2023-07-29T12:10:22;21.30;99.90
14277;DHT22;7222;57.346;12.150;2023-07-29T12:12:50;21.60;99.90
14277;DHT22;7222;57.346;12.150;2023-07-29T12:15:24;22.10;99.90
14277;DHT22;7222;57.346;12.150;2023-07-29T12:17:55;21.90;99.90
14277;DHT22;7222;57.346;12.150;2023-07-29T12:20:23;21.60;99.90
14277;DHT22;7222;57.346;12.150;2023-07-29T12:22:54;21.80;99.90
14277;DHT22;7222;57.346;12.150;2023-07-29T12:25:23;22.10;99.90
14277;DHT22;7222;57.346;12.150;2023-07-29T12:27:49;21.80;99.90
14277;DHT22;7222;57.346;12.150;2023-07-29T12:30:20;21.60;99.90
14277;DHT22;7222;57.346;12.150;2023-07-29T12:32:47;21.70;99.90
14277;DHT22;7222;57.346;12.150;2023-07-29T12:35:15;21.60;99.90
14277;DHT22;7222;57.346;12.150;2023-07-29T12:37:42;21.60;99.90
14277;DHT22;7222;57.346;12.150;2023-07-29T12:40:22;21.50;99.90
14277;DHT22;7222;57.346;12.150;2023-07-29T12:42:50;21.50;99.90
14277;DHT22;7222;57.346;12.150;2023-07-29T12:45:17;21.70;99.90
14277;DHT22;7222;57.346;12.150;2023-07-29T12:47:44;21.70;99.90
14277;DHT22;7222;57.346;12.150;2023-07-29T12:50:11;22.10;99.90
14277;DHT22;7222;57.346;12.150;2023-07-29T12:52:38;21.90;99.90
14277;DHT22;7222;57.346;12.150;2023-07-29T12:55:06;22.00;99.90
14277;DHT22;7222;57.346;12.150;2023-07-29T12:57:35;22.40;99.90
14277;DHT22;7222;57.346;12.150;2023-07-29T13:00:03;22.50;99.90
14277;DHT22;7222;57.346;12.150;2023-07-29T13:02:31;21.50;99.90
14277;DHT22;7222;57.346;12.150;2023-07-29T13:04:58;21.60;99.90
14277;DHT22;7222;57.346;12.150;2023-07-29T13:07:25;21.90;99.90
14277;DHT22;7222;57.346;12.150;2023-07-29T13:09:52;22.40;99.90
14277;DHT22;7222;57.346;12.150;2023-07-29T13:12:18;22.30;99.90
14277;DHT22;7222;57.346;12.150;2023-07-29T13:14:47;21.90;99.90
14277;DHT22;7222;57.346;12.150;2023-07-29T13:17:13;22.30;99.90
14277;DHT22;7222;57.346;12.150;2023-07-29T13:19:40;22.00;99.90
14277;DHT22;7222;57.346;12.150;2023-07-29T13:22:07;22.10;99.90
14277;DHT22;7222;57.346;12.150;2023-07-29T13:24:34;21.90;99.90
14277;DHT22;7222;57.346;12.150;2023-07-29T13:27:01;21.60;99.90
14277;DHT22;7222;57.346;12.150;2023-07-29T13:29:28;21.60;99.90
14277;DHT22;7222;57.346;12.150;2023-07-29T13:31:56;21.90;99.90
14277;DHT22;7222;57.346;12.150;2023-07-29T13:34:23;22.40;99.90
14277;DHT22;7222;57.346;12.150;2023-07-29T13:36:50;22.30;99.90
14277;DHT22;7222;57.346;12.150;2023-07-29T13:39:17;22.30;99.90
14277;DHT22;7222;57.346;12.150;2023-07-29T13:41:44;22.30;99.90
14277;DHT22;7222;57.346;12.150;2023-07-29T13:44:11;22.30;99.90
14277;DHT22;7222;57.346;12.150;2023-07-29T13:46:38;22.20;99.90
14277;DHT22;7222;57.346;12.150;2023-07-29T13:49:06;22.30;99.90
14277;DHT22;7222;57.346;12.150;2023-07-29T13:51:33;22.10;99.90
14277;DHT22;7222;57.346;12.150;2023-07-29T13:54:00;21.50;99.90
14277;DHT22;7222;57.346;12.150;2023-07-29T13:56:27;21.90;99.90
14277;DHT22;7222;57.346;12.150;2023-07-29T13:58:54;21.80;99.90
14277;DHT22;7222;57.346;12.150;2023-07-29T14:01:21;22.00;99.90
14277;DHT22;7222;57.346;12.150;2023-07-29T14:03:49;21.80;99.90
14277;DHT22;7222;57.346;12.150;2023-07-29T14:06:17;21.80;99.90
14277;DHT22;7222;57.346;12.150;2023-07-29T14:08:44;21.60;99.90
14277;DHT22;7222;57.346;12.150;2023-07-29T14:11:11;21.50;99.90
14277;DHT22;7222;57.346;12.150;2023-07-29T14:13:38;21.30;99.90
14277;DHT22;7222;57.346;12.150;2023-07-29T14:16:05;21.00;99.90
14277;DHT22;7222;57.346;12.150;2023-07-29T14:18:31;21.40;99.90
14277;DHT22;7222;57.346;12.150;2023-07-29T14:20:58;21.40;99.90
14277;DHT22;7222;57.346;12.150;2023-07-29T14:23:26;21.00;99.90
14277;DHT22;7222;57.346;12.150;2023-07-29T14:25:53;21.40;99.90
14277;DHT22;7222;57.346;12.150;2023-07-29T14:28:20;21.30;99.90
14277;DHT22;7222;57.346;12.150;2023-07-29T14:30:47;21.20;99.90
14277;DHT22;7222;57.346;12.150;2023-07-29T14:33:14;20.90;99.90
14277;DHT22;7222;57.346;12.150;2023-07-29T14:35:41;20.90;99.90
14277;DHT22;7222;57.346;12.150;2023-07-29T14:38:08;21.30;99.90
14277;DHT22;7222;57.346;12.150;2023-07-29T14:40:36;21.20;99.90
14277;DHT22;7222;57.346;12.150;2023-07-29T14:43:03;21.20;99.90
14277;DHT22;7222;57.346;12.150;2023-07-29T14:45:30;21.10;99.90
14277;DHT22;7222;57.346;12.150;2023-07-29T14:47:56;20.70;99.90
14277;DHT22;7222;57.346;12.150;2023-07-29T14:50:23;21.00;99.90
14277;DHT22;7222;57.346;12.150;2023-07-29T14:52:50;21.00;99.90
14277;DHT22;7222;57.346;12.150;2023-07-29T14:55:17;21.00;99.90
14277;DHT22;7222;57.346;12.150;2023-07-29T14:57:45;20.80;99.90
14277;DHT22;7222;57.346;12.150;2023-07-29T15:00:13;21.00;99.90
14277;DHT22;7222;57.346;12.150;2023-07-29T15:02:40;21.50;99.90
14277;DHT22;7222;57.346;12.150;2023-07-29T15:05:07;21.80;99.90
14277;DHT22;7222;57.346;12.150;2023-07-29T15:07:34;22.20;99.90
14277;DHT22;7222;57.346;12.150;2023-07-29T15:10:02;21.10;99.90
14277;DHT22;7222;57.346;12.150;2023-07-29T15:12:29;20.90;99.90
14277;DHT22;7222;57.346;12.150;2023-07-29T15:14:57;21.10;99.90
14277;DHT22;7222;57.346;12.150;2023-07-29T15:17:24;21.10;99.90
14277;DHT22;7222;57.346;12.150;2023-07-29T15:19:51;20.70;99.90
14277;DHT22;7222;57.346;12.150;2023-07-29T15:22:18;20.80;99.90
14277;DHT22;7222;57.346;12.150;2023-07-29T15:24:45;21.90;99.90
14277;DHT22;7222;57.346;12.150;2023-07-29T15:27:12;21.60;99.90
14277;DHT22;7222;57.346;12.150;2023-07-29T15:29:39;21.60;99.90
14277;DHT22;7222;57.346;12.150;2023-07-29T15:32:08;22.60;99.90
14277;DHT22;7222;57.346;12.150;2023-07-29T15:34:35;23.30;99.90
14277;DHT22;7222;57.346;12.150;2023-07-29T15:37:02;22.60;99.90
14277;DHT22;7222;57.346;12.150;2023-07-29T15:39:29;23.00;99.90